Time;durP1;ratioP1;P1;durP2;ratioP2;P2;SDS_P1;SDS_P2;PMS_P1;PMS_P2;Temp;Humidity;BMP_temperature;BMP_pressure;BME280_temperature;BME280_humidity;BME280_pressure;Samples;Min_cycle;Max_cycle;Signal;HPM_P1;HPM_P2
2022/12/13 00:01:21;;;;;;;14.15;4.47;;;;;;;2.08;53.33;97660.72;4350471;33;20151;-78
2022/12/13 00:03:48;;;;;;;15.50;5.18;;;;;;;2.61;52.40;97664.94;4350285;33;20087;-78
2022/12/13 00:06:15;;;;;;;;;;;;;;;2.33;53.27;97668.78;4350896;33;20087;-78
2022/12/13 00:08:41;;;;;;;12.40;5.35;;;;;;;2.67;52.59;97658.91;4350556;33;19963;-78
2022/12/13 00:11:09;;;;;;;;;;;;;;;2.36;53.64;97666.22;4350345;33;20091;-78
2022/12/13 00:13:36;;;;;;;;;;;;;;;2.30;53.75;97674.78;4349569;33;19991;-78
2022/12/13 00:16:06;;;;;;;14.75;5.22;;;;;;;1.85;54.15;97660.22;4350602;33;19989;-78
2022/12/13 00:18:33;;;;;;;13.35;4.70;;;;;;;2.00;54.72;97676.06;4337231;33;20142;-78
2022/12/13 00:21:04;;;;;;;13.62;5.03;;;;;;;1.78;55.02;97669.63;4350394;33;20458;-78
2022/12/13 00:23:31;;;;;;;18.37;5.82;;;;;;;2.44;53.43;97666.06;4350203;33;20099;-78
2022/12/13 00:26:03;;;;;;;14.80;5.40;;;;;;;2.29;53.91;97662.06;4350451;33;20441;-78
2022/12/13 00:28:30;;;;;;;15.63;5.43;;;;;;;3.50;50.92;97663.25;4350410;33;20083;-78
2022/12/13 00:31:00;;;;;;;12.20;4.90;;;;;;;2.55;52.84;97659.97;4349977;33;20351;-78
2022/12/13 00:33:48;;;;;;;14.57;5.47;;;;;;;3.63;50.37;97667.22;4350270;33;20091;-78
2022/12/13 00:36:15;;;;;;;10.95;3.78;;;;;;;3.64;50.17;97660.41;4350360;33;20087;-78
2022/12/13 00:38:42;;;;;;;12.82;5.22;;;;;;;2.75;51.98;97666.38;4350037;33;20079;-78
2022/12/13 00:41:11;;;;;;;13.02;5.37;;;;;;;2.77;52.53;97660.41;4350207;33;20118;-78
2022/12/13 00:43:37;;;;;;;14.85;5.40;;;;;;;2.20;53.64;97665.59;4350414;33;20122;-78
2022/12/13 00:46:07;;;;;;;13.60;5.43;;;;;;;2.94;51.63;97669.44;4350119;33;20088;-78
2022/12/13 00:48:34;;;;;;;14.05;5.75;;;;;;;3.11;50.97;97677.63;4337158;33;20083;-78
2022/12/13 00:51:05;;;;;;;15.02;5.55;;;;;;;3.56;49.96;97683.53;4350086;33;20446;-78
2022/12/13 00:53:32;;;;;;;15.32;5.53;;;;;;;3.23;50.25;97679.94;4350168;33;20095;-78
2022/12/13 00:56:00;;;;;;;11.70;4.93;;;;;;;3.33;50.14;97681.44;4350233;33;20156;-78
2022/12/13 00:58:27;;;;;;;8.07;2.53;;;;;;;3.38;50.37;97682.19;4350063;33;20107;-78
2022/12/13 01:01:02;;;;;;;14.35;5.30;;;;;;;2.71;52.31;97677.50;4349284;33;20099;-78
2022/12/13 01:03:30;;;;;;;13.55;5.30;;;;;;;2.92;51.16;97694.13;4350203;33;20099;-78
2022/12/13 01:05:57;;;;;;;13.90;5.47;;;;;;;1.79;53.68;97686.56;4350016;33;20106;-78
2022/12/13 01:08:41;;;;;;;13.50;5.25;;;;;;;1.07;57.33;97691.69;4350267;33;20127;-78
2022/12/13 01:11:09;;;;;;;14.40;5.62;;;;;;;2.10;54.21;97698.84;4350002;33;20100;-78
2022/12/13 01:13:37;;;;;;;13.68;5.35;;;;;;;2.89;51.78;97703.50;4349706;33;20103;-78
2022/12/13 01:16:07;;;;;;;12.75;5.12;;;;;;;4.26;47.54;97699.87;4350182;33;20079;-78
2022/12/13 01:18:34;;;;;;;15.20;5.40;;;;;;;3.82;47.61;97693.16;4350165;33;20110;-78
2022/12/13 01:21:05;;;;;;;14.30;5.22;;;;;;;3.40;48.89;97695.78;4349839;33;20099;-78
2022/12/13 01:23:33;;;;;;;14.75;5.22;;;;;;;2.49;51.37;97682.97;4349893;33;20103;-78
2022/12/13 01:26:04;;;;;;;12.98;4.60;;;;;;;2.64;51.01;97689.50;4350062;33;20434;-78
2022/12/13 01:28:31;;;;;;;15.52;5.47;;;;;;;3.68;48.72;97692.63;4349933;33;20640;-78
2022/12/13 01:31:08;;;;;;;16.02;5.25;;;;;;;3.35;49.21;97695.00;4349820;33;20123;-78
2022/12/13 01:33:36;;;;;;;13.20;5.28;;;;;;;2.81;50.29;97686.69;4349847;33;20107;-78
2022/12/13 01:36:05;;;;;;;12.73;5.35;;;;;;;2.92;50.54;97694.13;4350053;33;20092;-78
2022/12/13 01:38:32;;;;;;;15.80;5.80;;;;;;;4.22;47.75;97697.41;4349930;33;20079;-78
2022/12/13 01:41:04;;;;;;;13.23;5.07;;;;;;;4.31;47.02;97698.03;4337130;33;20103;-78
2022/12/13 01:43:43;;;;;;;14.70;4.87;;;;;;;3.92;46.75;97699.75;4350018;33;20118;-78
2022/12/13 01:46:11;;;;;;;13.27;4.90;;;;;;;3.71;48.10;97707.87;4349932;33;20542;-78
2022/12/13 01:48:43;;;;;;;15.50;5.18;;;;;;;4.29;46.36;97706.63;4349628;33;20106;-78
2022/12/13 01:51:12;;;;;;;15.70;5.57;;;;;;;3.95;47.46;97715.03;4336421;33;20111;-78
2022/12/13 01:53:41;;;;;;;13.57;5.00;;;;;;;4.02;47.01;97711.44;4349704;33;20114;-78
2022/12/13 01:56:15;;;;;;;12.35;5.05;;;;;;;3.44;48.87;97707.56;4349639;33;20096;-78
2022/12/13 01:58:41;;;;;;;13.88;4.95;;;;;;;3.67;48.57;97707.09;4349861;33;20126;-78
2022/12/13 02:01:11;;;;;;;;;;;;;;;3.66;48.31;97710.53;4349835;33;20099;-78
2022/12/13 02:03:39;;;;;;;12.75;5.00;;;;;;;3.98;47.54;97709.00;4348467;33;20111;-78
2022/12/13 02:06:06;;;;;;;14.32;5.60;;;;;;;4.16;47.42;97706.06;4348633;33;20150;-78
2022/12/13 02:08:33;;;;;;;14.65;5.35;;;;;;;4.07;47.91;97699.44;4349374;33;20472;-78
2022/12/13 02:11:02;;;;;;;13.95;5.18;;;;;;;4.12;47.30;97698.47;4336170;33;20170;-78
2022/12/13 02:13:29;;;;;;;13.35;5.15;;;;;;;4.33;47.02;97698.81;4335897;33;20114;-78
2022/12/13 02:16:20;;;;;;;16.02;5.40;;;;;;;3.96;47.66;97695.44;4349390;33;20083;-78
2022/12/13 02:19:14;;;;;;;14.52;5.12;;;;;;;3.67;48.42;97704.56;4336482;33;20684;-78
2022/12/13 02:21:58;;;;;;;14.55;4.47;;;;;;;2.92;50.47;97696.69;4336260;33;20552;-78
2022/12/13 02:24:28;;;;;;;13.62;5.47;;;;;;;2.74;50.86;97698.66;4336162;33;20103;-78
2022/12/13 02:27:08;;;;;;;14.73;5.22;;;;;;;3.41;49.45;97702.53;4349446;33;20088;-78
2022/12/13 02:29:44;;;;;;;14.90;5.25;;;;;;;3.49;48.79;97703.22;4335998;33;20076;-78
2022/12/13 02:32:59;;;;;;;14.82;5.75;;;;;;;2.84;50.38;97700.19;4349259;33;20107;-78
2022/12/13 02:36:00;;;;;;;14.45;5.15;;;;;;;2.95;50.27;97701.72;4288677;33;20116;-78
2022/12/13 02:38:49;;;;;;;15.73;5.00;;;;;;;2.80;50.54;97692.63;4347978;33;20102;-78
2022/12/13 02:41:25;;;;;;;14.07;4.87;;;;;;;2.83;49.93;97692.56;4335704;33;20080;-78
2022/12/13 02:44:00;;;;;;;13.80;5.43;;;;;;;2.89;50.29;97698.41;4348888;33;20083;-78
2022/12/13 02:46:30;;;;;;;16.40;5.87;;;;;;;2.90;50.78;97696.72;4349301;33;20086;-78
2022/12/13 02:48:57;;;;;;;13.98;5.97;;;;;;;2.95;50.36;97686.41;4335885;33;20126;-78
2022/12/13 02:51:25;;;;;;;14.95;5.62;;;;;;;3.02;49.89;97688.84;4335382;33;20110;-78
2022/12/13 02:53:52;;;;;;;13.98;5.57;;;;;;;3.04;49.89;97691.34;4335705;33;20104;-78
2022/12/13 02:56:19;;;;;;;14.30;4.82;;;;;;;2.86;50.34;97683.16;4349090;33;20154;-78
2022/12/13 02:58:49;;;;;;;13.55;5.47;;;;;;;1.40;55.17;97685.38;4348672;33;20090;-78
2022/12/13 03:01:28;;;;;;;14.50;5.32;;;;;;;2.03;53.12;97683.69;4348346;33;20162;-78
2022/12/13 03:04:10;;;;;;;14.23;5.43;;;;;;;1.41;55.17;97685.38;4347925;33;20100;-78
2022/12/13 03:07:11;;;;;;;14.48;4.87;;;;;;;1.55;54.49;97679.25;4348746;33;20086;-78
2022/12/13 03:09:41;;;;;;;13.82;5.10;;;;;;;2.35;52.01;97676.44;4348756;33;20095;-78
2022/12/13 03:15:34;;;;;;;14.38;5.45;;;;;;;3.33;48.83;97685.72;4348937;33;20109;-78
2022/12/13 03:18:14;;;;;;;14.40;5.68;;;;;;;4.18;45.63;97683.87;4348876;33;20113;-78
2022/12/13 03:20:47;;;;;;;16.35;5.03;;;;;;;3.91;46.48;97687.88;4348511;33;20122;-78
2022/12/13 03:23:18;;;;;;;15.18;5.87;;;;;;;3.23;47.80;97692.69;4349128;33;20081;-77
2022/12/13 03:25:48;;;;;;;15.13;5.72;;;;;;;1.86;51.65;97685.63;4350736;33;20100;-78
2022/12/13 03:28:15;;;;;;;16.15;5.70;;;;;;;1.10;54.53;97679.81;4350279;33;20150;-78
2022/12/13 03:30:42;;;;;;;15.05;6.22;;;;;;;1.18;55.32;97683.97;4350593;33;20091;-78
2022/12/13 03:33:09;;;;;;;13.90;5.50;;;;;;;1.44;54.45;97681.94;4350398;33;20212;-78
2022/12/13 03:35:36;;;;;;;16.58;5.70;;;;;;;2.20;51.84;97682.59;4350590;33;20118;-78
2022/12/13 03:38:15;;;;;;;15.15;5.20;;;;;;;1.95;52.22;97674.47;4338110;33;20098;-78
2022/12/13 03:41:00;;;;;;;13.13;5.12;;;;;;;1.76;52.56;97685.78;4350408;33;20109;-78
2022/12/13 03:43:28;;;;;;;14.13;4.97;;;;;;;1.15;54.34;97677.19;4337323;33;20110;-78
2022/12/13 03:45:55;;;;;;;13.35;4.32;;;;;;;1.63;52.55;97680.00;4350611;33;20100;-78
2022/12/13 03:48:22;;;;;;;12.73;4.87;;;;;;;0.99;54.52;97675.69;4350315;33;20090;-77
2022/12/13 03:50:51;;;;;;;12.52;5.10;;;;;;;1.32;53.46;97674.47;4350410;33;20095;-78
2022/12/13 03:53:19;;;;;;;14.70;5.65;;;;;;;1.31;53.13;97673.63;4350532;33;20080;-78
2022/12/13 03:56:01;;;;;;;16.33;5.65;;;;;;;1.73;51.71;97684.97;4350774;33;20123;-78
2022/12/13 03:58:29;;;;;;;15.45;5.60;;;;;;;2.17;49.99;97682.63;4350522;33;20119;-78
2022/12/13 04:01:06;;;;;;;13.20;5.32;;;;;;;3.52;46.55;97688.75;4350432;33;20091;-78
2022/12/13 04:03:33;;;;;;;14.30;5.28;;;;;;;3.34;46.95;97687.38;4348828;33;20442;-77
2022/12/13 04:06:00;;;;;;;14.68;5.00;;;;;;;3.06;46.87;97687.06;4350280;33;20162;-77
2022/12/13 04:08:27;;;;;;;13.98;5.07;;;;;;;3.17;46.96;97698.72;4350481;33;20500;-77
2022/12/13 04:10:54;;;;;;;17.42;6.20;;;;;;;2.92;47.24;97686.47;4350396;33;20099;-78
2022/12/13 04:13:33;;;;;;;15.25;5.60;;;;;;;3.01;47.51;97684.63;4350279;33;20088;-77
2022/12/13 04:16:01;;;;;;;16.10;5.57;;;;;;;2.83;47.53;97687.47;4350668;33;20114;-78
2022/12/13 04:18:28;;;;;;;14.87;6.10;;;;;;;2.90;47.64;97689.91;4350566;33;20110;-78
2022/12/13 04:20:56;;;;;;;14.75;6.22;;;;;;;3.14;47.54;97690.31;4350361;33;20370;-78
2022/12/13 04:23:23;;;;;;;16.40;6.28;;;;;;;3.35;47.04;97684.81;4350253;33;20081;-78
2022/12/13 04:25:50;;;;;;;15.13;6.07;;;;;;;2.66;49.02;97679.28;4350536;33;20107;-77
2022/12/13 04:28:17;;;;;;;14.70;5.65;;;;;;;3.36;47.15;97681.38;4350569;33;20118;-78
2022/12/13 04:30:49;;;;;;;14.52;5.93;;;;;;;2.75;48.25;97677.41;4350357;33;20117;-77
2022/12/13 04:33:23;;;;;;;16.90;6.10;;;;;;;3.87;45.75;97675.22;4350271;33;20102;-77
2022/12/13 04:35:50;;;;;;;24.00;8.48;;;;;;;4.10;44.08;97673.00;4349471;33;20146;-78
2022/12/13 04:38:17;;;;;;;17.40;6.50;;;;;;;4.01;44.04;97668.94;4350433;33;20109;-77
2022/12/13 04:40:45;;;;;;;19.73;6.72;;;;;;;3.63;44.94;97663.84;4350199;33;20105;-77
2022/12/13 04:43:11;;;;;;;16.92;6.72;;;;;;;2.84;47.13;97659.41;4349751;33;20150;-77
2022/12/13 04:45:38;;;;;;;17.65;6.95;;;;;;;2.81;47.53;97659.50;4350287;33;20150;-77
2022/12/13 04:48:06;;;;;;;17.25;7.18;;;;;;;2.73;48.31;97660.50;4350333;33;20091;-78
2022/12/13 04:50:33;;;;;;;;;;;;;;;2.67;46.92;97663.16;4350442;33;20868;-77
2022/12/13 04:53:00;;;;;;;14.82;5.80;;;;;;;3.37;45.45;97666.91;4350213;33;19971;-78
2022/12/13 04:55:27;;;;;;;16.98;6.53;;;;;;;2.60;46.75;97670.91;4350307;33;20099;-78
2022/12/13 04:57:54;;;;;;;19.40;6.85;;;;;;;1.61;50.43;97674.09;4350125;33;20138;-77
2022/12/13 05:00:21;;;;;;;16.80;6.03;;;;;;;2.22;48.87;97674.06;4336744;33;20110;-77
2022/12/13 05:02:49;;;;;;;15.88;6.12;;;;;;;2.37;48.29;97672.16;4350121;33;20091;-78
2022/12/13 05:05:16;;;;;;;14.18;5.35;;;;;;;2.10;49.42;97675.94;4350063;33;20110;-78
2022/12/13 05:07:43;;;;;;;14.65;6.35;;;;;;;2.66;48.51;97671.63;4350065;33;20150;-77
2022/12/13 05:10:10;;;;;;;18.35;6.53;;;;;;;3.31;46.25;97672.16;4349282;33;20099;-77
2022/12/13 05:12:38;;;;;;;16.50;6.22;;;;;;;2.84;46.90;97668.78;4349564;33;20083;-78
2022/12/13 05:15:05;;;;;;;16.52;5.93;;;;;;;2.42;47.64;97673.72;4349452;33;20129;-77
2022/12/13 05:17:33;;;;;;;18.02;6.18;;;;;;;2.29;47.74;97662.06;4350074;33;20087;-77
2022/12/13 05:19:59;;;;;;;16.05;6.25;;;;;;;2.18;47.64;97671.59;4349891;33;20090;-78
2022/12/13 05:22:26;;;;;;;16.45;5.97;;;;;;;2.51;47.53;97671.03;4350054;33;20108;-77
2022/12/13 05:24:53;;;;;;;16.42;5.75;;;;;;;2.92;46.25;97674.59;4349451;33;20461;-77
2022/12/13 05:27:20;;;;;;;18.33;5.62;;;;;;;3.25;45.01;97672.25;4349993;33;20088;-77
2022/12/13 05:29:55;;;;;;;17.77;5.47;;;;;;;2.94;44.83;97670.28;4349866;33;20451;-77
2022/12/13 05:32:37;;;;;;;19.33;6.47;;;;;;;2.33;46.71;97666.25;4349808;33;20135;-77
2022/12/13 05:35:14;;;;;;;15.82;6.10;;;;;;;2.89;45.83;97667.84;4336667;33;20104;-77
2022/12/13 05:37:50;;;;;;;17.12;5.60;;;;;;;2.08;48.02;97665.78;4350003;33;20092;-78
2022/12/13 05:40:20;;;;;;;17.55;7.00;;;;;;;3.00;47.12;97665.09;4349724;33;20086;-77
2022/12/13 05:42:47;;;;;;;17.27;6.35;;;;;;;3.26;45.35;97658.63;4349990;33;20528;-77
2022/12/13 05:45:16;;;;;;;16.02;5.95;;;;;;;3.24;45.02;97662.94;4349929;33;20155;-77
2022/12/13 05:47:43;;;;;;;19.73;6.93;;;;;;;2.09;47.19;97659.84;4349436;33;20131;-77
2022/12/13 05:50:11;;;;;;;17.08;6.57;;;;;;;1.93;47.39;97654.16;4349672;33;20099;-77
2022/12/13 05:52:38;;;;;;;16.20;5.78;;;;;;;1.92;47.58;97656.72;4336387;33;20091;-77
2022/12/13 05:55:05;;;;;;;16.02;5.93;;;;;;;2.50;46.63;97654.09;4349739;33;20118;-77
2022/12/13 05:57:32;;;;;;;17.27;6.18;;;;;;;2.67;46.29;97663.16;4349926;33;20099;-77
2022/12/13 06:00:00;;;;;;;16.45;6.05;;;;;;;2.04;47.13;97661.63;4348368;33;20109;-77
2022/12/13 06:02:27;;;;;;;17.87;6.25;;;;;;;1.33;49.57;97669.37;4349654;33;20110;-77
2022/12/13 06:04:54;;;;;;;16.52;5.70;;;;;;;1.16;50.05;97666.16;4349808;33;20494;-77
2022/12/13 06:07:20;;;;;;;;;;;;;;;0.24;52.30;97679.75;4349164;33;20158;-77
2022/12/13 06:09:47;;;;;;;17.10;6.00;;;;;;;0.34;52.40;97678.00;4349569;33;19975;-77
2022/12/13 06:12:15;;;;;;;;;;;;;;;0.28;52.97;97683.94;4349446;33;20114;-77
2022/12/13 06:14:58;;;;;;;15.38;4.87;;;;;;;-0.18;54.86;97685.13;4349412;33;19975;-77
2022/12/13 06:17:31;;;;;;;13.73;4.82;;;;;;;-0.35;56.32;97683.50;4349586;33;20107;-78
2022/12/13 06:19:58;;;;;;;13.02;5.03;;;;;;;0.64;52.87;97683.63;4349470;33;20091;-81
2022/12/13 06:22:26;;;;;;;13.13;5.00;;;;;;;0.66;53.18;97687.03;4349338;33;20087;-78
2022/12/13 06:24:53;;;;;;;13.10;5.18;;;;;;;0.69;53.66;97680.22;4350878;33;20171;-80
2022/12/13 06:27:20;;;;;;;16.15;5.65;;;;;;;0.08;55.11;97679.88;4350953;33;20154;-80
2022/12/13 06:29:47;;;;;;;13.73;5.28;;;;;;;0.26;55.19;97684.81;4350053;33;20481;-80
2022/12/13 06:32:14;;;;;;;13.62;4.25;;;;;;;0.63;54.58;97682.81;4351248;33;20084;-80
2022/12/13 06:34:41;;;;;;;14.35;5.47;;;;;;;-0.33;57.69;97694.50;4352420;33;20099;-80
2022/12/13 06:37:09;;;;;;;;;;;;;;;-0.54;58.85;97693.75;4351898;33;20117;-80
2022/12/13 06:39:36;;;;;;;16.95;6.75;;;;;;;0.62;56.62;97691.28;4350652;33;19990;-81
2022/12/13 06:42:04;;;;;;;;;;;;;;;0.94;55.68;97690.97;4351735;33;20110;-80
2022/12/13 06:44:33;;;;;;;15.63;6.20;;;;;;;1.45;54.01;97699.72;4351921;33;19987;-80
2022/12/13 06:47:00;;;;;;;18.55;6.60;;;;;;;2.59;49.07;97699.78;4351538;33;20547;-80
2022/12/13 06:49:38;;;;;;;13.77;4.50;;;;;;;2.30;49.37;97704.50;4349341;33;20184;-83
2022/12/13 06:52:08;;;;;;;15.68;5.00;;;;;;;2.75;47.50;97708.00;4348201;33;20101;-81
2022/12/13 06:54:35;;;;;;;14.80;5.65;;;;;;;1.99;49.54;97709.19;4349562;33;20118;-81
2022/12/13 06:57:02;;;;;;;;;;;;;;;1.64;50.84;97709.66;4349292;33;20118;-79
2022/12/13 06:59:29;;;;;;;17.45;5.82;;;;;;;1.45;51.84;97714.13;4350517;33;19971;-79
2022/12/13 07:01:56;;;;;;;;;;;;;;;1.60;51.76;97718.19;4351252;33;20079;-79
2022/12/13 07:04:30;;;;;;;15.30;5.72;;;;;;;1.24;56.06;97717.75;4350915;33;20316;-79
2022/12/13 07:06:57;;;;;;;14.82;5.85;;;;;;;2.05;53.54;97721.84;4351088;33;20087;-82
2022/12/13 07:09:31;;;;;;;14.87;6.00;;;;;;;2.25;51.49;97716.47;4351040;33;20091;-81
2022/12/13 07:11:58;;;;;;;18.40;6.30;;;;;;;3.35;48.95;97717.94;4337263;33;20083;-81
2022/12/13 07:14:25;;;;;;;17.87;6.90;;;;;;;4.27;46.67;97726.25;4350673;33;20107;-82
2022/12/13 07:16:52;;;;;;;16.10;6.12;;;;;;;4.70;44.05;97718.41;4350799;33;20114;-82
2022/12/13 07:19:28;;;;;;;17.60;7.50;;;;;;;4.69;44.28;97729.50;4350688;33;20118;-81
2022/12/13 07:22:04;;;;;;;18.85;7.37;;;;;;;4.68;43.82;97722.72;4350985;33;20110;-81
2022/12/13 07:24:33;;;;;;;17.05;7.22;;;;;;;5.34;42.62;97731.25;4350956;33;20091;-82
2022/12/13 07:27:00;;;;;;;18.35;7.10;;;;;;;5.41;42.31;97732.75;4350905;33;20109;-81
2022/12/13 07:29:27;;;;;;;17.67;6.57;;;;;;;5.05;43.37;97737.97;4350873;33;20540;-81
2022/12/13 07:31:54;;;;;;;17.50;6.87;;;;;;;5.41;42.64;97727.63;4350411;33;20100;-82
2022/12/13 07:34:27;;;;;;;17.77;6.72;;;;;;;5.61;42.35;97737.31;4350993;33;20099;-83
2022/12/13 07:36:54;;;;;;;18.50;6.72;;;;;;;5.45;42.35;97742.88;4351003;33;20433;-83
2022/12/13 07:39:24;;;;;;;;;;;;;;;4.01;45.37;97739.56;4350848;33;20107;-83
2022/12/13 07:41:54;;;;;;;14.23;5.68;;;;;;;4.29;45.29;97738.09;4350329;33;19979;-84
2022/12/13 07:44:22;;;;;;;14.65;5.90;;;;;;;4.34;45.72;97737.97;4350777;33;20099;-83
2022/12/13 07:46:49;;;;;;;18.15;6.03;;;;;;;4.49;45.12;97750.41;4350514;33;20481;-83
2022/12/13 07:49:16;;;;;;;14.80;6.15;;;;;;;4.26;46.08;97747.56;4350864;33;20087;-83
2022/12/13 07:51:43;;;;;;;15.60;5.95;;;;;;;4.83;44.48;97747.91;4350565;33;20091;-83
2022/12/13 07:54:10;;;;;;;14.75;6.37;;;;;;;4.32;46.39;97752.50;4350384;33;20441;-83
2022/12/13 07:56:36;;;;;;;13.52;5.80;;;;;;;4.79;45.42;97750.56;4350721;33;20401;-82
2022/12/13 07:59:03;;;;;;;;;;;;;;;4.60;45.81;97748.44;4350950;33;20520;-85
2022/12/13 08:01:33;;;;;;;17.17;5.80;;;;;;;5.30;44.88;97761.19;4350175;33;19963;-85
2022/12/13 08:04:01;;;;;;;15.85;6.30;;;;;;;4.75;45.49;97751.50;4350789;33;20096;-86
2022/12/13 08:06:28;;;;;;;16.17;6.30;;;;;;;5.36;44.76;97749.97;4350281;33;20544;-85
2022/12/13 08:08:56;;;;;;;16.20;6.35;;;;;;;5.91;43.76;97754.41;4350479;33;20083;-86
2022/12/13 08:11:23;;;;;;;16.23;6.25;;;;;;;5.73;43.58;97750.63;4350447;33;20083;-85
2022/12/13 08:13:50;;;;;;;14.93;6.55;;;;;;;6.61;42.21;97762.56;4349791;33;20163;-85
2022/12/13 08:16:17;;;;;;;19.45;6.90;;;;;;;7.01;40.67;97761.25;4350645;33;20114;-85
2022/12/13 08:18:58;;;;;;;15.93;5.65;;;;;;;6.19;42.68;97759.59;4350566;33;20083;-85
2022/12/13 08:21:32;;;;;;;14.57;6.20;;;;;;;6.66;40.82;97752.16;4350156;33;20079;-85
2022/12/13 08:24:19;;;;;;;14.93;6.12;;;;;;;5.64;43.76;97748.34;4350266;33;20111;-85
2022/12/13 08:26:46;;;;;;;15.85;5.95;;;;;;;6.44;42.29;97756.25;4350528;33;20114;-85
2022/12/13 08:29:14;;;;;;;12.55;5.62;;;;;;;6.97;41.45;97752.84;4350185;33;20149;-85
2022/12/13 08:32:00;;;;;;;12.95;5.22;;;;;;;7.25;40.31;97759.63;4350243;33;20146;-85
2022/12/13 08:34:28;;;;;;;12.37;5.15;;;;;;;7.12;40.41;97764.28;4350119;33;20095;-85
2022/12/13 08:36:54;;;;;;;14.02;5.72;;;;;;;7.02;41.27;97764.66;4350483;33;20095;-85
2022/12/13 08:39:31;;;;;;;12.75;5.32;;;;;;;7.81;38.84;97767.91;4350444;33;20091;-84
2022/12/13 08:42:09;;;;;;;15.02;5.85;;;;;;;7.82;39.22;97767.00;4349992;33;20159;-82
2022/12/13 08:44:49;;;;;;;12.88;4.80;;;;;;;7.02;40.55;97762.09;4337845;33;20099;-82
2022/12/13 08:47:17;;;;;;;13.57;5.10;;;;;;;8.31;38.53;97762.63;4350447;33;20446;-83
2022/12/13 08:49:58;;;;;;;12.30;5.12;;;;;;;8.74;37.13;97763.56;4349996;33;20087;-83
2022/12/13 08:52:33;;;;;;;11.40;5.07;;;;;;;8.90;36.68;97762.03;4349276;33;20079;-84
2022/12/13 08:55:05;;;;;;;13.93;4.72;;;;;;;8.97;36.41;97760.87;4350364;33;20454;-84
2022/12/13 08:57:35;;;;;;;14.48;5.93;;;;;;;8.49;37.44;97766.22;4349901;33;20110;-84
2022/12/13 09:00:04;;;;;;;12.55;4.60;;;;;;;8.38;37.17;97763.22;4350190;33;20087;-84
2022/12/13 09:02:31;;;;;;;11.50;4.25;;;;;;;7.00;41.08;97757.00;4349861;33;20075;-84
2022/12/13 09:05:04;;;;;;;11.75;4.37;;;;;;;7.44;38.83;97755.53;4350472;33;20134;-84
2022/12/13 09:07:31;;;;;;;10.70;4.15;;;;;;;7.73;39.20;97756.22;4350318;33;20107;-84
2022/12/13 09:09:58;;;;;;;11.85;4.72;;;;;;;8.44;37.63;97757.03;4350042;33;20437;-85
2022/12/13 09:12:45;;;;;;;10.65;4.28;;;;;;;8.76;36.93;97750.63;4349870;33;20091;-85
2022/12/13 09:15:12;;;;;;;;;;;;;;;8.94;36.20;97743.00;4350824;33;20398;-85
2022/12/13 09:17:48;;;;;;;10.45;4.07;;;;;;;9.59;35.24;97738.53;4350565;33;20415;-85
2022/12/13 09:20:18;;;;;;;11.82;3.75;;;;;;;9.70;34.71;97735.50;4349999;33;20095;-84
2022/12/13 09:22:55;;;;;;;10.77;4.00;;;;;;;9.16;34.67;97740.38;4350076;33;20492;-85
2022/12/13 09:25:30;;;;;;;10.45;3.80;;;;;;;9.94;34.45;97736.13;4350487;33;20095;-85
2022/12/13 09:28:07;;;;;;;11.68;4.75;;;;;;;10.35;34.07;97732.53;4350525;33;20095;-85
2022/12/13 09:30:38;;;;;;;15.82;5.43;;;;;;;10.59;33.64;97725.38;4350101;33;20169;-85
2022/12/13 09:33:05;;;;;;;10.77;4.53;;;;;;;10.81;33.10;97712.25;4350322;33;20088;-85
2022/12/13 09:35:52;;;;;;;12.05;5.03;;;;;;;11.54;31.86;97721.47;4350677;33;20100;-85
2022/12/13 09:38:19;;;;;;;10.20;4.60;;;;;;;12.13;30.93;97721.84;4352091;33;20165;-83
2022/12/13 09:40:48;;;;;;;12.43;4.68;;;;;;;12.51;30.23;97721.50;4354872;33;20106;-83
2022/12/13 09:43:24;;;;;;;11.80;4.40;;;;;;;12.66;29.87;97716.31;4339632;33;20075;-83
2022/12/13 09:46:00;;;;;;;12.55;5.00;;;;;;;12.54;30.32;97723.91;4342257;33;20141;-82
2022/12/13 09:48:28;;;;;;;10.70;4.37;;;;;;;12.88;29.78;97720.28;4339806;33;20094;-83
2022/12/13 09:51:00;;;;;;;12.15;4.32;;;;;;;13.30;29.15;97722.16;4351294;33;20109;-83
2022/12/13 09:53:50;;;;;;;10.47;4.97;;;;;;;12.79;29.27;97716.44;4352956;33;20083;-83
2022/12/13 09:56:21;;;;;;;11.45;4.95;;;;;;;11.64;30.72;97726.16;4352668;33;20199;-82
2022/12/13 09:58:50;;;;;;;11.98;4.93;;;;;;;12.71;29.83;97714.28;4352554;33;20114;-83
2022/12/13 10:01:17;;;;;;;12.07;4.37;;;;;;;12.73;29.38;97716.78;4351926;33;20063;-83
2022/12/13 10:03:51;;;;;;;12.30;4.70;;;;;;;13.47;28.87;97709.03;4351153;33;20418;-83
2022/12/13 10:06:22;;;;;;;11.90;4.93;;;;;;;13.18;28.73;97700.34;4338670;33;20163;-83
2022/12/13 10:08:55;;;;;;;11.77;5.37;;;;;;;13.41;28.67;97690.44;4355575;33;20067;-83
2022/12/13 10:11:59;;;;;;;12.02;5.25;;;;;;;13.99;28.24;97692.91;4346100;33;20105;-83
2022/12/13 10:14:39;;;;;;;12.07;4.72;;;;;;;12.28;29.59;97689.97;4332937;33;20055;-83
2022/12/13 10:17:07;;;;;;;13.40;5.70;;;;;;;12.94;29.65;97694.00;4353774;33;20446;-83
2022/12/13 10:19:46;;;;;;;12.48;5.35;;;;;;;12.58;30.05;97687.44;4339731;33;20178;-83
2022/12/13 10:22:15;;;;;;;11.70;5.37;;;;;;;11.59;31.34;97685.91;4340472;33;20082;-83
2022/12/13 10:25:02;;;;;;;10.88;4.03;;;;;;;12.12;30.22;97684.81;4339989;33;20079;-81
2022/12/13 10:27:49;;;;;;;10.85;4.10;;;;;;;11.54;30.90;97684.47;4351248;33;20415;-82
2022/12/13 10:30:23;;;;;;;10.17;4.03;;;;;;;11.56;30.62;97686.06;4350918;33;20103;-82
2022/12/13 10:33:00;;;;;;;9.05;3.28;;;;;;;11.93;31.01;97685.91;4337475;33;20087;-81
2022/12/13 10:35:30;;;;;;;9.60;3.10;;;;;;;11.95;30.11;97682.31;4350494;33;20087;-82
2022/12/13 10:38:02;;;;;;;8.40;3.22;;;;;;;12.35;29.29;97677.53;4351761;33;20100;-81
2022/12/13 10:40:31;;;;;;;9.85;3.53;;;;;;;11.23;31.38;97678.31;4337465;33;20118;-81
2022/12/13 10:43:29;;;;;;;8.98;3.10;;;;;;;12.90;28.96;97677.81;4351414;33;20099;-82
2022/12/13 10:45:58;;;;;;;9.30;3.90;;;;;;;11.84;30.57;97669.13;4342518;33;20079;-82
2022/12/13 10:48:46;;;;;;;8.90;3.67;;;;;;;10.93;32.15;97665.19;4356632;33;20772;-82
2022/12/13 10:51:18;;;;;;;8.57;3.40;;;;;;;11.22;30.80;97660.31;4342208;33;20071;-82
2022/12/13 10:53:45;;;;;;;11.00;4.25;;;;;;;12.76;28.79;97659.69;4356429;33;20158;-82
2022/12/13 10:56:16;;;;;;;10.77;4.07;;;;;;;13.16;28.00;97658.16;4351401;33;20336;-84
2022/12/13 10:58:52;;;;;;;9.98;4.12;;;;;;;13.72;27.47;97664.31;4351122;33;20103;-84
2022/12/13 11:01:22;;;;;;;10.48;4.07;;;;;;;13.73;27.42;97660.81;4337679;33;20174;-84
2022/12/13 11:04:20;;;;;;;9.73;3.47;;;;;;;14.15;26.55;97661.66;4350739;33;20099;-85
2022/12/13 11:06:54;;;;;;;7.93;3.42;;;;;;;13.29;27.18;97656.56;4345802;33;20150;-84
2022/12/13 11:09:28;;;;;;;9.57;3.65;;;;;;;13.95;26.95;97651.69;4337317;33;20446;-84
2022/12/13 11:12:13;;;;;;;11.32;4.22;;;;;;;13.72;27.45;97653.13;4350782;33;20113;-85
2022/12/13 11:14:52;;;;;;;8.27;3.65;;;;;;;14.38;26.65;97653.22;4350678;33;20091;-85
2022/12/13 11:17:24;;;;;;;10.73;4.07;;;;;;;12.99;27.69;97642.81;4350636;33;20500;-85
2022/12/13 11:19:56;;;;;;;9.25;4.00;;;;;;;13.74;27.19;97649.50;4350944;33;20112;-84
2022/12/13 11:22:26;;;;;;;10.48;3.83;;;;;;;11.13;30.32;97647.88;4337619;33;20111;-84
2022/12/13 11:24:59;;;;;;;9.00;3.62;;;;;;;11.99;29.90;97639.84;4350881;33;20106;-83
2022/12/13 11:27:43;;;;;;;10.45;4.57;;;;;;;12.08;30.20;97638.50;4337694;33;20154;-83
2022/12/13 11:30:34;;;;;;;13.40;5.28;;;;;;;12.35;29.96;97642.16;4351214;33;20103;-83
2022/12/13 11:33:10;;;;;;;11.95;4.57;;;;;;;11.46;30.76;97637.53;4351364;33;20174;-83
2022/12/13 11:36:04;;;;;;;13.18;5.20;;;;;;;11.65;31.69;97638.22;4351453;33;20102;-83
2022/12/13 11:38:39;;;;;;;10.25;4.55;;;;;;;10.98;31.79;97639.16;4351340;33;20085;-83
2022/12/13 11:41:28;;;;;;;10.73;4.70;;;;;;;11.83;30.81;97632.09;4338293;33;20127;-83
2022/12/13 11:44:06;;;;;;;10.43;4.50;;;;;;;11.20;31.54;97626.81;4350282;33;20095;-83
2022/12/13 11:46:42;;;;;;;17.08;5.20;;;;;;;10.46;33.08;97626.28;4338852;33;20157;-83
2022/12/13 11:49:16;;;;;;;11.12;4.45;;;;;;;10.43;33.25;97626.44;4350989;33;20106;-83
2022/12/13 11:51:48;;;;;;;10.73;4.20;;;;;;;10.12;33.95;97625.28;4350611;33;20095;-83
2022/12/13 11:54:33;;;;;;;13.70;5.50;;;;;;;10.45;33.59;97619.44;4337535;33;20111;-83
2022/12/13 11:57:04;;;;;;;11.23;4.62;;;;;;;10.32;34.33;97621.78;4350703;33;20091;-83
2022/12/13 11:59:41;;;;;;;10.90;4.40;;;;;;;9.96;34.57;97620.91;4337050;33;20088;-82
2022/12/13 12:02:34;;;;;;;14.18;5.37;;;;;;;9.15;36.38;97610.00;4337368;33;20108;-82